createdAt,value
2023-01-08T00:02:24.937Z,-7.30
2023-01-08T00:04:55.287Z,-7.40
2023-01-08T00:07:25.422Z,-7.30
2023-01-08T00:09:57.331Z,-7.40
2023-01-08T00:12:27.433Z,-7.40
2023-01-08T00:14:57.619Z,-7.40
2023-01-08T00:17:27.920Z,-7.40
2023-01-08T00:19:58.088Z,-7.40
2023-01-08T00:22:28.284Z,-7.40
2023-01-08T00:25:00.135Z,-7.40
2023-01-08T00:27:30.369Z,-7.40
2023-01-08T00:30:04.222Z,-7.40
2023-01-08T00:32:34.393Z,-7.50
2023-01-08T00:35:04.859Z,-7.40
2023-01-08T00:37:35.008Z,-7.50
2023-01-08T00:40:07.726Z,-7.50
2023-01-08T00:42:38.047Z,-7.50
2023-01-08T00:45:09.533Z,-7.50
2023-01-08T00:47:40.248Z,-7.50
2023-01-08T00:50:11.235Z,-7.50
2023-01-08T00:52:41.674Z,-7.50
2023-01-08T00:55:13.977Z,-7.50
2023-01-08T00:57:44.972Z,-7.50
2023-01-08T01:00:17.816Z,-7.50
2023-01-08T01:02:48.466Z,-7.50
2023-01-08T01:05:19.192Z,-7.60
2023-01-08T01:07:49.685Z,-7.60
2023-01-08T01:10:21.629Z,-7.60
2023-01-08T01:12:52.457Z,-7.60
2023-01-08T01:15:23.185Z,-8.00
2023-01-08T01:17:53.431Z,-7.70
2023-01-08T01:20:24.448Z,-7.70
2023-01-08T01:22:55.114Z,-7.70
2023-01-08T01:25:27.169Z,-7.70
2023-01-08T01:27:57.400Z,-7.80
2023-01-08T01:30:27.785Z,-7.80
2023-01-08T01:32:59.195Z,-7.80
2023-01-08T01:35:29.994Z,-7.90
2023-01-08T01:38:00.085Z,-7.90
2023-01-08T01:40:32.099Z,-7.90
2023-01-08T01:43:03.791Z,-7.90
2023-01-08T01:45:37.711Z,-7.90
2023-01-08T01:48:13.233Z,-7.90
2023-01-08T01:50:48.288Z,-7.90
2023-01-08T01:53:23.704Z,-7.90
2023-01-08T01:55:59.835Z,-7.90
2023-01-08T01:58:34.569Z,-7.90
2023-01-08T02:01:09.663Z,-7.90
2023-01-08T02:03:41.468Z,-7.90
2023-01-08T02:06:28.507Z,-7.90
2023-01-08T02:09:03.596Z,-7.80
2023-01-08T02:11:48.705Z,-7.90
2023-01-08T02:14:25.310Z,-7.90
2023-01-08T02:16:59.744Z,-7.90
2023-01-08T02:19:41.098Z,-7.90
2023-01-08T02:22:22.348Z,-7.90
2023-01-08T02:24:59.803Z,-7.90
2023-01-08T02:27:36.278Z,-7.90
2023-01-08T02:30:07.994Z,-7.90
2023-01-08T02:34:53.697Z,-7.90
2023-01-08T02:37:24.216Z,-7.90
2023-01-08T02:40:13.192Z,-7.90
2023-01-08T02:42:48.467Z,-7.90
2023-01-08T02:45:30.883Z,-7.90
2023-01-08T02:48:12.546Z,-7.80
2023-01-08T02:50:51.355Z,-7.90
2023-01-08T02:53:28.505Z,-7.80
2023-01-08T02:56:01.720Z,-7.80
2023-01-08T02:58:35.516Z,-7.90
2023-01-08T03:01:08.059Z,-7.90
2023-01-08T03:03:40.811Z,-7.90
2023-01-08T03:06:16.703Z,-7.80
2023-01-08T03:08:50.275Z,-7.90
2023-01-08T03:11:23.058Z,-7.90
2023-01-08T03:13:59.368Z,-7.90
2023-01-08T03:16:36.320Z,-7.90
2023-01-08T03:19:12.739Z,-8.00
2023-01-08T03:21:47.025Z,-8.00
2023-01-08T03:24:20.066Z,-8.00
2023-01-08T03:26:53.028Z,-7.90
2023-01-08T03:29:25.889Z,-7.90
2023-01-08T03:32:00.313Z,-7.90
2023-01-08T03:34:35.296Z,-7.90
2023-01-08T03:37:09.818Z,-8.00
2023-01-08T03:39:46.439Z,-7.90
2023-01-08T03:42:19.236Z,-7.90
2023-01-08T03:44:49.601Z,-7.90
2023-01-08T03:47:21.660Z,-7.90
2023-01-08T03:49:53.771Z,-8.00
2023-01-08T03:52:30.236Z,-8.00
2023-01-08T03:55:00.352Z,-8.00
2023-01-08T03:57:30.810Z,-8.00
2023-01-08T04:00:01.062Z,-8.00
2023-01-08T04:02:31.400Z,-8.00
2023-01-08T04:05:01.643Z,-8.00
2023-01-08T04:07:33.516Z,-8.00
2023-01-08T04:10:03.655Z,-8.00
2023-01-08T04:12:33.901Z,-8.00
2023-01-08T04:15:04.227Z,-8.00
2023-01-08T04:17:34.347Z,-8.00
2023-01-08T04:20:04.468Z,-8.00
2023-01-08T04:22:36.305Z,-8.00
2023-01-08T04:25:06.872Z,-8.00
2023-01-08T04:27:37.057Z,-8.00
2023-01-08T04:30:07.940Z,-8.00
2023-01-08T04:32:38.297Z,-8.00
2023-01-08T04:35:09.275Z,-8.00
2023-01-08T04:37:41.261Z,-8.00
2023-01-08T04:40:12.653Z,-8.00
2023-01-08T04:42:42.957Z,-8.00
2023-01-08T04:45:13.687Z,-8.00
2023-01-08T04:47:43.888Z,-8.00
2023-01-08T04:50:14.220Z,-8.00
2023-01-08T04:52:46.010Z,-8.00
2023-01-08T04:55:16.205Z,-7.90
2023-01-08T04:57:46.303Z,-8.00
2023-01-08T05:00:17.508Z,-7.90
2023-01-08T05:02:47.857Z,-7.90
2023-01-08T05:05:18.169Z,-8.00
2023-01-08T05:07:50.034Z,-8.00
2023-01-08T05:10:20.875Z,-7.90
2023-01-08T05:12:51.097Z,-7.90
2023-01-08T05:15:23.600Z,-7.90
2023-01-08T05:18:01.507Z,-7.90
2023-01-08T05:20:31.857Z,-7.90
2023-01-08T05:23:04.025Z,-7.90
2023-01-08T05:25:34.079Z,-8.00
2023-01-08T05:28:04.319Z,-8.00
2023-01-08T05:30:34.490Z,-8.00
2023-01-08T05:33:04.854Z,-8.10
2023-01-08T05:35:35.434Z,-8.00
2023-01-08T05:38:07.467Z,-8.10
2023-01-08T05:40:37.712Z,-8.10
2023-01-08T05:43:08.028Z,-8.10
2023-01-08T05:45:38.123Z,-8.10
2023-01-08T05:48:09.040Z,-8.10
2023-01-08T05:50:39.203Z,-8.10
2023-01-08T05:53:12.099Z,-8.10
2023-01-08T05:55:42.324Z,-8.10
2023-01-08T05:58:13.043Z,-8.10
2023-01-08T06:00:43.183Z,-8.10
2023-01-08T06:03:13.408Z,-8.10
2023-01-08T06:05:43.597Z,-8.10
2023-01-08T06:08:15.403Z,-8.10
2023-01-08T06:10:45.582Z,-8.10
2023-01-08T06:13:15.755Z,-8.10
2023-01-08T06:15:45.908Z,-8.10
2023-01-08T06:18:16.093Z,-8.10
2023-01-08T06:20:46.376Z,-8.10
2023-01-08T06:23:18.139Z,-8.10
2023-01-08T06:25:53.653Z,-8.10
2023-01-08T06:28:23.944Z,-8.00
2023-01-08T06:30:54.393Z,-8.10
2023-01-08T06:33:24.742Z,-8.00
2023-01-08T06:35:55.407Z,-8.00
2023-01-08T06:38:27.182Z,-7.90
2023-01-08T06:40:57.313Z,-7.90
2023-01-08T06:43:27.488Z,-8.00
2023-01-08T06:45:59.095Z,-8.00
2023-01-08T06:48:29.385Z,-8.00
2023-01-08T06:51:02.813Z,-8.00
2023-01-08T06:53:35.000Z,-8.00
2023-01-08T06:56:08.106Z,-8.00
2023-01-08T06:58:40.985Z,-8.00
2023-01-08T07:01:16.490Z,-8.10
2023-01-08T07:03:47.067Z,-8.00
2023-01-08T07:06:18.891Z,-8.10
2023-01-08T07:08:51.595Z,-8.10
2023-01-08T07:11:21.747Z,-8.10
2023-01-08T07:13:52.169Z,-8.10
2023-01-08T07:16:22.317Z,-8.10
2023-01-08T07:18:52.485Z,-8.10
2023-01-08T07:21:23.304Z,-8.10
2023-01-08T07:23:55.091Z,-8.10
2023-01-08T07:26:25.207Z,-8.10
2023-01-08T07:28:55.731Z,-8.20
2023-01-08T07:31:26.005Z,-8.20
2023-01-08T07:33:56.569Z,-8.10
2023-01-08T07:36:26.781Z,-8.20
2023-01-08T07:38:58.955Z,-8.10
2023-01-08T07:41:29.671Z,-8.10
2023-01-08T07:43:59.838Z,-8.20
2023-01-08T07:46:30.088Z,-8.20
2023-01-08T07:49:00.283Z,-8.20
2023-01-08T07:51:30.523Z,-8.20
2023-01-08T07:54:02.455Z,-8.20
2023-01-08T07:56:32.596Z,-8.20
2023-01-08T07:59:02.804Z,-8.30
2023-01-08T08:01:33.021Z,-8.30
2023-01-08T08:04:03.236Z,-8.30
2023-01-08T08:06:33.555Z,-8.30
2023-01-08T08:09:05.646Z,-8.30
2023-01-08T08:11:35.775Z,-8.30
2023-01-08T08:14:05.972Z,-8.30
2023-01-08T08:16:36.110Z,-8.30
2023-01-08T08:19:06.647Z,-8.30
2023-01-08T08:21:36.779Z,-8.30
2023-01-08T08:24:09.431Z,-8.30
2023-01-08T08:26:39.634Z,-8.30
2023-01-08T08:29:09.789Z,-8.30
2023-01-08T08:31:39.968Z,-8.30
2023-01-08T08:34:10.854Z,-8.30
2023-01-08T08:36:41.215Z,-8.30
2023-01-08T08:39:13.031Z,-8.30
2023-01-08T08:41:43.624Z,-8.30
2023-01-08T08:44:13.822Z,-8.40
2023-01-08T08:46:43.994Z,-8.40
2023-01-08T08:49:14.311Z,-8.30
2023-01-08T08:51:44.424Z,-8.30
2023-01-08T08:54:16.439Z,-8.30
2023-01-08T08:56:46.643Z,-8.40
2023-01-08T08:59:16.876Z,-8.50
2023-01-08T09:01:47.172Z,-8.50
2023-01-08T09:04:17.394Z,-8.50
2023-01-08T09:06:47.542Z,-8.50
2023-01-08T09:09:19.545Z,-8.60
2023-01-08T09:11:49.677Z,-8.60
2023-01-08T09:14:19.942Z,-8.70
2023-01-08T09:16:50.109Z,-8.70
2023-01-08T09:19:20.284Z,-8.70
2023-01-08T09:21:51.078Z,-8.70
2023-01-08T09:24:22.936Z,-8.70
2023-01-08T09:26:55.356Z,-8.70
2023-01-08T09:29:25.666Z,-8.80
2023-01-08T09:31:56.496Z,-8.80
2023-01-08T09:34:27.172Z,-8.80
2023-01-08T09:36:57.335Z,-8.80
2023-01-08T09:39:29.110Z,-8.80
2023-01-08T09:42:01.076Z,-8.80
2023-01-08T09:44:36.401Z,-8.80
2023-01-08T09:47:07.167Z,-8.80
2023-01-08T09:49:42.159Z,-8.80
2023-01-08T09:52:15.432Z,-8.80
2023-01-08T09:54:47.231Z,-8.80
2023-01-08T09:57:20.819Z,-8.80
2023-01-08T09:59:52.342Z,-8.80
2023-01-08T10:02:24.692Z,-8.80
2023-01-08T10:04:59.170Z,-8.80
2023-01-08T10:07:31.917Z,-8.80
2023-01-08T10:10:03.919Z,-8.80
2023-01-08T10:12:35.972Z,-8.80
2023-01-08T10:15:09.815Z,-8.80
2023-01-08T10:17:41.328Z,-8.80
2023-01-08T10:20:16.018Z,-8.80
2023-01-08T10:22:48.290Z,-8.80
2023-01-08T10:25:23.392Z,-8.80
2023-01-08T10:27:55.918Z,-8.80
2023-01-08T10:30:31.440Z,-8.80
2023-01-08T10:33:07.280Z,-8.80
2023-01-08T10:35:39.497Z,-8.80
2023-01-08T10:38:09.930Z,-8.80
2023-01-08T10:40:44.347Z,-8.80
2023-01-08T10:43:19.346Z,-8.80
2023-01-08T10:45:59.290Z,-8.90
2023-01-08T10:48:34.697Z,-9.00
2023-01-08T10:51:16.724Z,-9.00
2023-01-08T10:53:47.154Z,-9.10
2023-01-08T10:56:26.998Z,-9.20
2023-01-08T10:58:58.033Z,-9.30
2023-01-08T11:01:29.629Z,-9.40
2023-01-08T11:04:01.763Z,-9.50
2023-01-08T11:06:34.642Z,-9.60
2023-01-08T11:09:06.753Z,-9.60
2023-01-08T11:11:40.092Z,-9.60
2023-01-08T11:14:23.098Z,-9.70
2023-01-08T11:16:53.823Z,-9.70
2023-01-08T11:19:27.852Z,-9.80
2023-01-08T11:22:00.534Z,-9.80
2023-01-08T11:24:33.139Z,-9.90
2023-01-08T11:27:12.666Z,-9.90
2023-01-08T11:29:47.957Z,-9.90
2023-01-08T11:32:32.668Z,-9.90
2023-01-08T11:35:08.570Z,-9.90
2023-01-08T11:37:41.101Z,-9.90
2023-01-08T11:40:17.489Z,-9.90
2023-01-08T11:43:19.363Z,-9.90
2023-01-08T11:46:06.067Z,-9.90
2023-01-08T11:48:51.260Z,-9.90
2023-01-08T11:51:42.391Z,-9.90
2023-01-08T11:54:22.901Z,-10.00
2023-01-08T11:57:10.797Z,-10.10
2023-01-08T12:00:05.140Z,-10.10
2023-01-08T12:02:53.277Z,-10.20
2023-01-08T12:05:39.253Z,-10.20
2023-01-08T12:08:14.527Z,-10.20
2023-01-08T12:10:57.362Z,-10.10
2023-01-08T12:13:42.257Z,-10.10
2023-01-08T12:16:30.650Z,-10.10
2023-01-08T12:19:19.635Z,-10.00
2023-01-08T12:22:00.519Z,-9.90
2023-01-08T12:24:51.533Z,-9.80
2023-01-08T12:27:54.505Z,-9.80
2023-01-08T12:30:28.198Z,-9.80
2023-01-08T12:33:05.282Z,-9.70
2023-01-08T12:35:39.424Z,-9.60
2023-01-08T12:38:14.162Z,-9.50
2023-01-08T12:40:47.646Z,-9.40
2023-01-08T12:43:22.153Z,-9.40
2023-01-08T12:45:56.392Z,-9.30
2023-01-08T12:48:30.527Z,-9.30
2023-01-08T12:51:07.146Z,-9.20
2023-01-08T12:53:51.455Z,-9.20
2023-01-08T12:56:32.396Z,-9.10
2023-01-08T12:59:13.788Z,-9.10
2023-01-08T13:01:51.672Z,-9.00
2023-01-08T13:04:23.880Z,-9.00
2023-01-08T13:06:57.572Z,-9.00
2023-01-08T13:09:29.172Z,-9.00
2023-01-08T13:12:01.972Z,-8.90
2023-01-08T13:14:42.824Z,-8.90
2023-01-08T13:17:20.576Z,-8.90
2023-01-08T13:19:57.484Z,-8.90
2023-01-08T13:22:30.082Z,-8.80
2023-01-08T13:25:31.552Z,-8.70
2023-01-08T13:28:02.628Z,-8.70
2023-01-08T13:30:40.609Z,-8.60
2023-01-08T13:33:42.575Z,-8.60
2023-01-08T13:36:26.257Z,-8.60
2023-01-08T13:39:05.228Z,-8.50
2023-01-08T13:41:37.883Z,-8.50
2023-01-08T13:44:16.282Z,-8.40
2023-01-08T13:46:55.487Z,-8.40
2023-01-08T13:49:31.671Z,-8.40
2023-01-08T13:52:04.707Z,-8.40
2023-01-08T13:54:39.011Z,-8.40
2023-01-08T13:57:15.533Z,-8.30
2023-01-08T13:59:50.895Z,-8.30
2023-01-08T14:02:30.789Z,-8.30
2023-01-08T14:05:02.112Z,-8.20
2023-01-08T14:07:34.256Z,-8.10
2023-01-08T14:10:17.491Z,-8.20
2023-01-08T14:12:48.100Z,-8.20
2023-01-08T14:15:25.896Z,-8.20
2023-01-08T14:17:57.851Z,-8.10
2023-01-08T14:20:36.375Z,-8.00
2023-01-08T14:23:13.981Z,-8.00
2023-01-08T14:25:44.546Z,-7.80
2023-01-08T14:28:19.998Z,-7.80
2023-01-08T14:30:54.102Z,-7.70
2023-01-08T14:33:29.118Z,-7.70
2023-01-08T14:36:00.183Z,-7.70
2023-01-08T14:38:32.012Z,-7.60
2023-01-08T14:41:05.860Z,-7.60
2023-01-08T14:43:37.922Z,-7.50
2023-01-08T14:46:24.755Z,-7.50
2023-01-08T14:48:56.658Z,-7.40
2023-01-08T14:51:30.166Z,-7.40
2023-01-08T14:54:06.708Z,-7.40
2023-01-08T14:56:38.586Z,-7.30
2023-01-08T14:59:12.457Z,-7.20
2023-01-08T15:01:42.854Z,-7.20
2023-01-08T15:04:19.365Z,-7.10
2023-01-08T15:06:49.775Z,-7.10
2023-01-08T15:09:26.574Z,-7.10
2023-01-08T15:11:58.453Z,-7.10
2023-01-08T15:14:31.616Z,-7.10
2023-01-08T15:17:07.053Z,-7.00
2023-01-08T15:19:42.359Z,-7.00
2023-01-08T15:22:20.937Z,-7.00
2023-01-08T15:24:59.920Z,-7.00
2023-01-08T15:27:32.565Z,-6.90
2023-01-08T15:30:04.409Z,-6.80
2023-01-08T15:32:37.687Z,-6.80
2023-01-08T15:35:17.519Z,-6.80
2023-01-08T15:37:47.854Z,-6.80
2023-01-08T15:40:19.685Z,-6.80
2023-01-08T15:43:06.789Z,-6.90
2023-01-08T15:45:37.390Z,-6.90
2023-01-08T15:48:08.621Z,-7.00
2023-01-08T15:50:40.776Z,-7.10
2023-01-08T15:53:15.392Z,-7.00
2023-01-08T15:55:47.906Z,-7.00
2023-01-08T15:58:19.068Z,-6.80
2023-01-08T16:00:49.802Z,-6.70
2023-01-08T16:03:20.856Z,-6.60
2023-01-08T16:05:51.037Z,-6.50
2023-01-08T16:08:21.164Z,-6.50
2023-01-08T16:10:56.364Z,-6.50
2023-01-08T16:13:26.514Z,-6.40
2023-01-08T16:15:56.938Z,-6.30
2023-01-08T16:18:27.162Z,-6.10
2023-01-08T16:21:03.388Z,-6.00
2023-01-08T16:23:33.683Z,-6.10
2023-01-08T16:26:08.391Z,-6.20
2023-01-08T16:28:39.051Z,-6.10
2023-01-08T16:31:09.417Z,-6.20
2023-01-08T16:33:40.067Z,-6.30
2023-01-08T16:36:11.987Z,-6.20
2023-01-08T16:38:42.153Z,-6.20
2023-01-08T16:41:14.065Z,-6.20
2023-01-08T16:43:45.976Z,-6.00
2023-01-08T16:46:18.597Z,-6.20
2023-01-08T16:48:49.784Z,-6.10
2023-01-08T16:51:21.878Z,-6.20
2023-01-08T16:53:52.051Z,-6.20
2023-01-08T16:56:23.931Z,-6.20
2023-01-08T16:58:54.368Z,-6.10
2023-01-08T17:01:24.778Z,-6.00
2023-01-08T17:03:55.002Z,-5.90
2023-01-08T17:06:25.201Z,-5.80
2023-01-08T17:08:55.376Z,-5.70
2023-01-08T17:11:27.278Z,-5.70
2023-01-08T17:13:57.405Z,-5.60
2023-01-08T17:16:28.108Z,-5.60
2023-01-08T17:18:58.654Z,-5.50
2023-01-08T17:21:28.810Z,-5.60
2023-01-08T17:23:58.934Z,-5.60
2023-01-08T17:26:30.800Z,-5.50
2023-01-08T17:29:01.008Z,-5.30
2023-01-08T17:31:31.350Z,-5.10
2023-01-08T17:34:01.723Z,-5.10
2023-01-08T17:36:33.090Z,-5.20
2023-01-08T17:39:03.425Z,-5.20
2023-01-08T17:41:54.221Z,-5.10
2023-01-08T17:44:26.933Z,-4.90
2023-01-08T17:46:57.124Z,-4.80
2023-01-08T17:49:27.274Z,-4.90
2023-01-08T17:51:57.729Z,-5.00
2023-01-08T17:54:28.128Z,-5.10
2023-01-08T17:57:00.221Z,-4.80
2023-01-08T17:59:31.715Z,-4.60
2023-01-08T18:02:02.012Z,-4.60
2023-01-08T18:04:33.017Z,-4.60
2023-01-08T18:07:03.384Z,-4.50
2023-01-08T18:09:35.158Z,-4.30
2023-01-08T18:12:08.883Z,-4.30
2023-01-08T18:14:40.400Z,-4.30
2023-01-08T18:17:10.963Z,-4.40
2023-01-08T18:19:41.267Z,-4.40
2023-01-08T18:22:11.629Z,-4.30
2023-01-08T18:24:41.755Z,-4.30
2023-01-08T18:27:13.577Z,-4.20
2023-01-08T18:29:43.979Z,-4.30
2023-01-08T18:32:14.143Z,-4.30
2023-01-08T18:34:44.425Z,-4.40
2023-01-08T18:37:14.565Z,-4.40
2023-01-08T18:39:44.725Z,-4.50
2023-01-08T18:42:28.906Z,-4.20
2023-01-08T18:45:12.113Z,-4.00
2023-01-08T18:47:42.355Z,-3.90
2023-01-08T18:50:13.669Z,-3.70
2023-01-08T18:52:43.827Z,-3.50
2023-01-08T18:55:14.246Z,-3.50
2023-01-08T18:57:47.975Z,-3.40
2023-01-08T19:00:18.564Z,-3.40
2023-01-08T19:02:49.081Z,-3.50
2023-01-08T19:05:19.533Z,-3.70
2023-01-08T19:07:49.732Z,-3.60
2023-01-08T19:10:20.507Z,-3.60
2023-01-08T19:12:52.643Z,-3.80
2023-01-08T19:15:22.820Z,-3.90
2023-01-08T19:17:52.988Z,-4.00
2023-01-08T19:20:23.268Z,-4.30
2023-01-08T19:22:53.706Z,-4.40
2023-01-08T19:25:23.984Z,-4.50
2023-01-08T19:27:55.937Z,-4.50
2023-01-08T19:30:26.061Z,-4.60
2023-01-08T19:32:56.604Z,-4.60
2023-01-08T19:35:27.101Z,-4.50
2023-01-08T19:37:57.247Z,-4.50
2023-01-08T19:40:27.662Z,-4.40
2023-01-08T19:43:16.097Z,-4.20
2023-01-08T19:45:46.266Z,-4.20
2023-01-08T19:48:16.527Z,-4.20
2023-01-08T19:50:47.556Z,-4.40
2023-01-08T19:53:18.264Z,-4.50
2023-01-08T19:55:48.597Z,-4.60
2023-01-08T19:58:21.177Z,-4.80
2023-01-08T20:00:51.800Z,-4.90
2023-01-08T20:03:24.288Z,-5.00
2023-01-08T20:05:54.421Z,-5.10
2023-01-08T20:08:28.455Z,-5.10
2023-01-08T20:10:58.580Z,-5.20
2023-01-08T20:13:32.192Z,-5.30
2023-01-08T20:16:02.348Z,-5.30
2023-01-08T20:18:32.723Z,-5.40
2023-01-08T20:21:07.349Z,-5.50
2023-01-08T20:23:38.382Z,-5.40
2023-01-08T20:26:10.852Z,-5.50
2023-01-08T20:28:43.851Z,-5.50
2023-01-08T20:31:15.581Z,-5.50
2023-01-08T20:33:47.469Z,-5.60
2023-01-08T20:36:19.126Z,-5.70
2023-01-08T20:38:54.435Z,-5.80
2023-01-08T20:41:24.858Z,-5.80
2023-01-08T20:43:58.132Z,-5.90
2023-01-08T20:46:30.231Z,-5.90
2023-01-08T20:49:03.663Z,-5.80
2023-01-08T20:51:34.057Z,-5.80
2023-01-08T20:54:06.296Z,-5.60
2023-01-08T20:56:36.773Z,-5.40
2023-01-08T20:59:09.004Z,-5.20
2023-01-08T21:01:39.737Z,-5.00
2023-01-08T21:04:12.072Z,-4.80
2023-01-08T21:06:42.254Z,-4.70
2023-01-08T21:09:14.742Z,-4.70
2023-01-08T21:11:44.938Z,-4.60
2023-01-08T21:14:16.780Z,-4.50
2023-01-08T21:16:49.217Z,-4.50
2023-01-08T21:19:19.450Z,-4.50
2023-01-08T21:21:49.603Z,-4.50
2023-01-08T21:24:20.975Z,-4.40
2023-01-08T21:26:51.132Z,-4.40
2023-01-08T21:29:24.003Z,-4.40
2023-01-08T21:31:54.181Z,-4.50
2023-01-08T21:34:24.808Z,-4.40
2023-01-08T21:36:54.920Z,-4.40
2023-01-08T21:39:26.472Z,-4.40
2023-01-08T21:42:13.637Z,-4.30
2023-01-08T21:45:02.482Z,-4.30
2023-01-08T21:47:32.657Z,-4.30
2023-01-08T21:50:02.866Z,-4.30
2023-01-08T21:52:49.944Z,-4.30
2023-01-08T21:55:20.262Z,-4.20
2023-01-08T21:57:50.624Z,-4.20
2023-01-08T22:00:24.435Z,-4.10
2023-01-08T22:02:54.630Z,-4.00
2023-01-08T22:05:24.895Z,-4.00
2023-01-08T22:07:55.119Z,-3.90
2023-01-08T22:10:25.307Z,-4.00
2023-01-08T22:12:58.180Z,-3.90
2023-01-08T22:15:30.008Z,-3.90
2023-01-08T22:18:00.202Z,-3.90
2023-01-08T22:20:30.407Z,-3.80
2023-01-08T22:23:00.598Z,-3.80
2023-01-08T22:25:32.068Z,-3.80
2023-01-08T22:28:02.150Z,-3.80
2023-01-08T22:30:34.630Z,-3.80
2023-01-08T22:33:04.936Z,-3.80
2023-01-08T22:35:35.548Z,-3.80
2023-01-08T22:38:05.731Z,-3.80
2023-01-08T22:40:35.899Z,-3.80
2023-01-08T22:43:06.221Z,-3.80
2023-01-08T22:45:38.567Z,-3.80
2023-01-08T22:48:08.961Z,-3.70
2023-01-08T22:50:39.181Z,-3.80
2023-01-08T22:53:09.320Z,-3.70
2023-01-08T22:55:43.273Z,-3.70
2023-01-08T22:58:13.551Z,-3.70
2023-01-08T23:00:45.774Z,-3.70
2023-01-08T23:03:15.940Z,-3.70
2023-01-08T23:05:46.114Z,-3.70
2023-01-08T23:08:16.251Z,-3.70
2023-01-08T23:10:46.581Z,-3.80
2023-01-08T23:13:18.150Z,-3.70
2023-01-08T23:15:50.016Z,-3.60
2023-01-08T23:18:20.482Z,-3.60
2023-01-08T23:20:50.635Z,-3.60
2023-01-08T23:23:20.841Z,-3.60
2023-01-08T23:25:51.153Z,-3.50
2023-01-08T23:28:21.395Z,-3.50
2023-01-08T23:30:53.413Z,-3.50
2023-01-08T23:33:24.278Z,-3.40
2023-01-08T23:35:55.175Z,-3.40
2023-01-08T23:38:25.384Z,-3.40
2023-01-08T23:40:55.626Z,-3.40
2023-01-08T23:43:25.774Z,-3.40
2023-01-08T23:45:57.939Z,-3.40
2023-01-08T23:48:30.931Z,-3.30
2023-01-08T23:51:01.201Z,-3.40
2023-01-08T23:53:31.488Z,-3.30
2023-01-08T23:56:02.549Z,-3.40
2023-01-08T23:58:33.949Z,-3.30
